createdAt,value
2023-01-25T05:42:38.603Z,-1.64
2023-01-25T05:45:09.697Z,-1.70
2023-01-25T05:47:37.283Z,-1.73
2023-01-25T05:50:04.586Z,-1.73
2023-01-25T05:52:49.274Z,-1.77
2023-01-25T05:55:16.289Z,-1.74
2023-01-25T05:57:44.077Z,-1.67
2023-01-25T06:00:11.250Z,-1.61
2023-01-25T06:02:42.721Z,-1.55
2023-01-25T06:05:15.281Z,-1.50
2023-01-25T06:07:42.092Z,-1.47
2023-01-25T06:10:09.578Z,-1.42
2023-01-25T06:12:39.951Z,-1.34
2023-01-25T06:15:08.454Z,-1.27
2023-01-25T06:17:35.753Z,-1.24
2023-01-25T06:20:15.474Z,-1.21
2023-01-25T06:22:58.301Z,-1.12
2023-01-25T06:25:27.276Z,-1.03
2023-01-25T06:27:54.751Z,-0.99
2023-01-25T06:30:21.691Z,-0.94
2023-01-25T06:32:49.869Z,-0.89
2023-01-25T06:35:16.513Z,-0.83
2023-01-25T06:37:43.523Z,-0.79
2023-01-25T06:40:10.961Z,-0.76
2023-01-25T06:42:37.932Z,-0.74
2023-01-25T06:45:05.861Z,-0.73
2023-01-25T06:47:32.521Z,-0.81
2023-01-25T06:49:59.937Z,-0.88
2023-01-25T06:52:26.779Z,-0.89
2023-01-25T06:54:53.531Z,-0.94
2023-01-25T06:57:20.377Z,-1.04
2023-01-25T06:59:47.218Z,-1.15
2023-01-25T07:02:15.345Z,-1.30
2023-01-25T07:04:45.296Z,-1.42
2023-01-25T07:07:12.137Z,-1.50
2023-01-25T07:09:38.840Z,-1.55
2023-01-25T07:12:06.126Z,-1.59
2023-01-25T07:14:33.302Z,-1.60
2023-01-25T07:17:02.965Z,-1.60
2023-01-25T07:19:30.730Z,-1.58
2023-01-25T07:21:57.544Z,-1.57
2023-01-25T07:24:26.482Z,-1.56
2023-01-25T07:26:53.338Z,-1.53
2023-01-25T07:29:21.211Z,-1.51
2023-01-25T07:31:48.439Z,-1.50
2023-01-25T07:34:16.484Z,-1.44
2023-01-25T07:36:44.362Z,-1.43
2023-01-25T07:39:11.406Z,-1.44
2023-01-25T07:41:39.315Z,-1.43
2023-01-25T07:44:11.315Z,-1.40
2023-01-25T07:46:44.846Z,-1.39
2023-01-25T07:49:11.700Z,-1.41
2023-01-25T07:51:42.453Z,-1.40
2023-01-25T07:54:10.026Z,-1.41
2023-01-25T07:56:37.820Z,-1.42
2023-01-25T07:59:09.373Z,-1.40
2023-01-25T08:01:36.954Z,-1.38
2023-01-25T08:04:09.122Z,-1.44
2023-01-25T08:06:38.690Z,-1.52
2023-01-25T08:09:13.839Z,-1.55
2023-01-25T08:11:41.901Z,-1.56
2023-01-25T08:14:09.017Z,-1.53
2023-01-25T08:16:36.617Z,-1.54
2023-01-25T08:19:03.603Z,-1.56
2023-01-25T08:21:35.221Z,-1.54
2023-01-25T08:24:04.695Z,-1.52
2023-01-25T08:26:33.605Z,-1.55
2023-01-25T08:29:01.106Z,-1.55
2023-01-25T08:31:30.676Z,-1.49
2023-01-25T08:33:59.157Z,-1.41
2023-01-25T08:36:27.447Z,-1.33
2023-01-25T08:39:00.355Z,-1.28
2023-01-25T08:41:28.724Z,-1.24
2023-01-25T08:43:56.184Z,-1.22
2023-01-25T08:46:24.550Z,-1.20
2023-01-25T08:48:57.788Z,-1.18
2023-01-25T08:51:27.642Z,-1.18
2023-01-25T08:53:58.085Z,-1.17
2023-01-25T08:56:24.853Z,-1.16
2023-01-25T08:58:58.407Z,-1.14
2023-01-25T09:01:25.231Z,-1.10
2023-01-25T09:03:54.252Z,-1.04
2023-01-25T09:06:23.165Z,-1.01
2023-01-25T09:08:50.380Z,-0.99
2023-01-25T09:11:20.222Z,-0.98
2023-01-25T09:13:59.697Z,-0.97
2023-01-25T09:16:31.305Z,-0.96
2023-01-25T09:19:00.163Z,-0.93
2023-01-25T09:21:27.455Z,-0.92
2023-01-25T09:24:06.052Z,-0.94
2023-01-25T09:26:36.979Z,-0.96
2023-01-25T09:29:05.377Z,-1.06
2023-01-25T09:31:37.799Z,-1.13
2023-01-25T09:34:24.424Z,-1.21
2023-01-25T09:36:52.319Z,-1.21
2023-01-25T09:39:20.580Z,-1.18
2023-01-25T09:42:13.975Z,-1.17
2023-01-25T09:44:56.449Z,-1.24
2023-01-25T09:47:29.210Z,-1.34
2023-01-25T09:50:19.249Z,-1.35
2023-01-25T09:52:50.605Z,-1.30
2023-01-25T09:55:18.054Z,-1.27
2023-01-25T09:57:45.843Z,-1.25
2023-01-25T10:00:20.012Z,-1.21
2023-01-25T10:03:01.418Z,-1.19
2023-01-25T10:05:37.811Z,-1.21
2023-01-25T10:08:34.087Z,-1.27
2023-01-25T10:11:26.664Z,-1.31
2023-01-25T10:13:56.307Z,-1.29
2023-01-25T10:16:46.913Z,-1.25
2023-01-25T10:19:33.578Z,-1.21
2023-01-25T10:22:05.372Z,-1.20
2023-01-25T10:25:01.491Z,-1.20
2023-01-25T10:27:44.172Z,-1.23
2023-01-25T10:30:38.933Z,-1.23
2023-01-25T10:33:18.710Z,-1.28
2023-01-25T10:35:48.337Z,-1.30
2023-01-25T10:39:37.733Z,-1.30
2023-01-25T10:42:11.337Z,-1.29
2023-01-25T10:44:42.208Z,-1.30
2023-01-25T10:47:12.802Z,-1.31
2023-01-25T10:49:49.717Z,-1.32
2023-01-25T10:52:28.388Z,-1.34
2023-01-25T10:55:19.534Z,-1.34
2023-01-25T10:58:05.954Z,-1.29
2023-01-25T11:00:47.899Z,-1.26
2023-01-25T11:03:42.953Z,-1.25
2023-01-25T11:06:10.776Z,-1.26
2023-01-25T11:12:21.950Z,-1.29
2023-01-25T11:15:26.056Z,-1.29
2023-01-25T11:18:06.483Z,-1.29
2023-01-25T11:20:38.148Z,-1.29
2023-01-25T11:23:26.643Z,-1.24
2023-01-25T11:25:56.862Z,-1.20
2023-01-25T11:28:24.187Z,-1.24
2023-01-25T11:30:51.987Z,-1.32
2023-01-25T11:33:20.195Z,-1.33
2023-01-25T11:36:03.259Z,-1.33
2023-01-25T11:38:57.740Z,-1.33
2023-01-25T11:41:42.973Z,-1.34
2023-01-25T11:44:26.394Z,-1.34
2023-01-25T11:46:59.244Z,-1.34
2023-01-25T11:49:39.248Z,-1.33
2023-01-25T11:52:30.536Z,-1.33
2023-01-25T11:55:06.804Z,-1.32
2023-01-25T11:58:23.159Z,-1.31
2023-01-25T12:01:24.297Z,-1.30
2023-01-25T12:04:41.429Z,-1.43
2023-01-25T12:07:24.528Z,-1.62
2023-01-25T12:10:14.170Z,-1.72
2023-01-25T12:12:55.913Z,-1.75
2023-01-25T12:16:00.585Z,-1.78
2023-01-25T12:18:49.766Z,-1.74
2023-01-25T12:22:01.776Z,-1.68
2023-01-25T12:24:54.637Z,-1.62
2023-01-25T12:27:55.685Z,-1.57
2023-01-25T12:31:02.596Z,-1.55
2023-01-25T12:33:49.692Z,-1.50
2023-01-25T12:36:21.655Z,-1.47
2023-01-25T12:39:10.443Z,-1.48
2023-01-25T12:41:45.243Z,-1.50
2023-01-25T12:44:18.574Z,-1.53
2023-01-25T12:46:51.936Z,-1.56
2023-01-25T12:49:44.303Z,-1.57
2023-01-25T12:52:34.177Z,-1.56
2023-01-25T12:55:04.469Z,-1.57
2023-01-25T12:57:43.015Z,-1.65
2023-01-25T13:00:48.898Z,-1.73
2023-01-25T13:03:25.000Z,-1.83
2023-01-25T13:06:25.477Z,-1.78
2023-01-25T13:09:31.634Z,-1.67
2023-01-25T13:12:00.719Z,-1.61
2023-01-25T13:14:30.353Z,-1.57
2023-01-25T13:17:22.339Z,-1.55
2023-01-25T13:19:52.922Z,-1.55
2023-01-25T13:22:48.083Z,-1.54
2023-01-25T13:25:16.524Z,-1.73
2023-01-25T13:27:44.491Z,-1.89
2023-01-25T13:30:33.606Z,-1.95
2023-01-25T13:33:02.997Z,-2.00
2023-01-25T13:35:38.521Z,-2.00
2023-01-25T13:38:21.795Z,-1.99
2023-01-25T13:41:10.689Z,-2.02
2023-01-25T13:43:39.779Z,-1.98
2023-01-25T13:46:09.432Z,-1.93
2023-01-25T13:48:38.205Z,-1.88
2023-01-25T13:51:08.906Z,-1.94
2023-01-25T13:53:39.416Z,-1.94
2023-01-25T13:56:24.431Z,-1.88
2023-01-25T13:58:53.946Z,-1.82
2023-01-25T14:01:23.146Z,-1.84
2023-01-25T14:03:58.987Z,-1.88
2023-01-25T14:06:39.621Z,-1.89
2023-01-25T14:09:20.516Z,-1.86
2023-01-25T14:11:55.155Z,-1.88
2023-01-25T14:14:33.069Z,-1.86
2023-01-25T14:17:16.618Z,-1.80
2023-01-25T14:19:45.343Z,-1.74
2023-01-25T14:22:24.414Z,-1.70
2023-01-25T14:25:13.490Z,-1.67
2023-01-25T14:28:00.570Z,-1.73
2023-01-25T14:30:31.637Z,-1.73
2023-01-25T14:32:59.802Z,-1.72
2023-01-25T14:35:54.633Z,-1.70
2023-01-25T14:38:44.459Z,-1.68
2023-01-25T14:41:33.592Z,-1.65
2023-01-25T14:44:21.600Z,-1.62
2023-01-25T14:47:31.685Z,-1.60
2023-01-25T14:50:48.035Z,-1.73
2023-01-25T14:53:22.328Z,-1.82
2023-01-25T14:55:52.307Z,-1.90
2023-01-25T14:58:25.704Z,-1.96
2023-01-25T15:01:02.575Z,-2.00
2023-01-25T15:03:35.420Z,-2.01
2023-01-25T15:06:06.570Z,-1.99
2023-01-25T15:08:38.345Z,-1.92
2023-01-25T15:11:59.740Z,-1.84
2023-01-25T15:14:31.604Z,-1.75
2023-01-25T15:17:01.845Z,-1.76
2023-01-25T15:19:34.360Z,-1.84
2023-01-25T15:22:08.637Z,-1.86
2023-01-25T15:24:42.353Z,-1.85
2023-01-25T15:27:18.348Z,-1.83
2023-01-25T15:29:50.566Z,-1.79
2023-01-25T15:32:22.372Z,-1.83
2023-01-25T15:34:53.691Z,-1.89
2023-01-25T15:37:23.797Z,-1.86
2023-01-25T15:45:49.278Z,-1.82
2023-01-25T15:48:45.271Z,-1.87
2023-01-25T15:51:14.220Z,-1.86
2023-01-25T15:53:42.244Z,-1.86
2023-01-25T15:56:15.281Z,-1.95
2023-01-25T15:58:45.918Z,-2.04
2023-01-25T16:01:13.992Z,-2.12
2023-01-25T16:03:42.515Z,-2.13
2023-01-25T16:06:21.171Z,-2.08
2023-01-25T16:08:49.330Z,-2.02
2023-01-25T16:11:18.187Z,-1.97
2023-01-25T16:13:46.253Z,-1.96
2023-01-25T16:16:19.890Z,-1.99
2023-01-25T16:18:48.087Z,-2.01
2023-01-25T16:21:16.392Z,-2.03
2023-01-25T16:23:44.908Z,-2.06
2023-01-25T16:26:21.298Z,-2.11
2023-01-25T16:28:50.327Z,-2.12
2023-01-25T16:31:31.225Z,-2.12
2023-01-25T16:34:01.239Z,-2.07
2023-01-25T16:36:34.473Z,-2.01
2023-01-25T16:39:08.645Z,-1.98
2023-01-25T16:41:37.162Z,-1.97
2023-01-25T16:44:05.160Z,-1.95
2023-01-25T16:46:34.085Z,-1.91
2023-01-25T16:49:05.085Z,-1.89
2023-01-25T16:51:33.305Z,-1.85
2023-01-25T16:54:01.394Z,-1.83
2023-01-25T16:56:32.186Z,-1.84
2023-01-25T16:59:02.317Z,-1.86
2023-01-25T17:12:00.482Z,-1.89
2023-01-25T17:14:28.686Z,-1.89
2023-01-25T17:27:17.328Z,-1.78
2023-01-25T17:29:46.094Z,-1.80
2023-01-25T17:32:14.089Z,-1.83
2023-01-25T17:34:42.832Z,-1.85
2023-01-25T17:37:10.797Z,-1.85
